createdAt,value
2018-08-08T00:01:15.225Z,99001.96
2018-08-08T00:03:46.918Z,98997.27
2018-08-08T00:06:18.322Z,98943.34
2018-08-08T00:08:51.659Z,98991.72
2018-08-08T00:11:21.815Z,99027.51
2018-08-08T00:13:51.876Z,99004.95
2018-08-08T00:16:21.764Z,99032.75
2018-08-08T00:18:52.575Z,99053.95
2018-08-08T00:21:22.414Z,99065.32
2018-08-08T00:23:53.247Z,99077.09
2018-08-08T00:26:24.675Z,99080.53
2018-08-08T00:28:55.338Z,99081.33
2018-08-08T00:31:25.930Z,99076.23
2018-08-08T00:33:56.959Z,99082.11
2018-08-08T00:36:28.362Z,99086.75
2018-08-08T00:39:00.074Z,99079.13
2018-08-08T00:41:35.957Z,99072.20
2018-08-08T00:44:05.297Z,99090.03
2018-08-08T00:46:35.099Z,99097.66
2018-08-08T00:49:06.168Z,99095.64
2018-08-08T00:51:36.124Z,99097.48
2018-08-08T00:54:06.087Z,99111.25
2018-08-08T00:56:35.845Z,99108.73
2018-08-08T00:59:06.545Z,99097.87
2018-08-08T01:01:36.624Z,99091.20
2018-08-08T01:04:06.629Z,99085.93
2018-08-08T01:06:36.053Z,99092.69
2018-08-08T01:09:10.244Z,99076.50
2018-08-08T01:11:41.092Z,99098.95
2018-08-08T01:14:11.515Z,99084.86
2018-08-08T01:16:41.184Z,99080.13
2018-08-08T01:19:10.667Z,99076.89
2018-08-08T01:21:40.867Z,99080.88
2018-08-08T01:24:10.857Z,99084.77
2018-08-08T01:26:42.224Z,99096.26
2018-08-08T01:29:11.634Z,99104.06
2018-08-08T01:31:47.509Z,99097.03
2018-08-08T01:34:17.493Z,99095.69
2018-08-08T01:36:47.884Z,99084.77
2018-08-08T01:39:17.228Z,99088.94
2018-08-08T01:41:47.912Z,99022.23
2018-08-08T01:44:17.895Z,99084.07
2018-08-08T01:46:47.976Z,99076.14
2018-08-08T01:49:17.949Z,99081.68
2018-08-08T01:51:48.288Z,99090.87
2018-08-08T01:54:20.233Z,99086.13
2018-08-08T01:56:50.435Z,99101.48
2018-08-08T01:59:19.786Z,99102.01
2018-08-08T02:01:50.939Z,99097.62
2018-08-08T02:04:21.946Z,99090.00
2018-08-08T02:06:51.988Z,99105.67
2018-08-08T02:09:22.090Z,99105.25
2018-08-08T02:11:52.662Z,99105.17
2018-08-08T02:14:22.064Z,99099.52
2018-08-08T02:16:54.832Z,99101.31
2018-08-08T02:19:25.559Z,99103.36
2018-08-08T02:22:03.066Z,99113.02
2018-08-08T02:24:39.172Z,99112.34
2018-08-08T02:27:08.531Z,99028.67
2018-08-08T02:29:38.784Z,99115.18
2018-08-08T02:32:09.143Z,99105.45
2018-08-08T02:34:42.629Z,99041.88
2018-08-08T02:37:13.019Z,99102.71
2018-08-08T02:39:43.819Z,99099.77
2018-08-08T02:42:14.566Z,99092.43
2018-08-08T02:44:46.431Z,99087.00
2018-08-08T02:47:16.567Z,99007.56
2018-08-08T02:52:22.019Z,99098.36
2018-08-08T02:54:52.043Z,99095.61
2018-08-08T02:57:23.834Z,99101.54
2018-08-08T02:59:54.873Z,99116.20
2018-08-08T03:02:25.944Z,99115.23
2018-08-08T03:04:57.849Z,99147.83
2018-08-08T03:07:29.079Z,99176.42
2018-08-08T03:12:35.008Z,99137.92
2018-08-08T03:15:05.856Z,99169.06
2018-08-08T03:17:35.860Z,99157.14
2018-08-08T03:20:06.492Z,99173.77
2018-08-08T03:22:36.377Z,99189.55
2018-08-08T03:25:07.544Z,99192.81
2018-08-08T03:27:37.744Z,99197.70
2018-08-08T03:30:16.289Z,99200.55
2018-08-08T03:32:51.686Z,99182.83
2018-08-08T03:35:21.687Z,99198.77
2018-08-08T03:37:52.272Z,99193.16
2018-08-08T03:40:22.060Z,99214.87
2018-08-08T03:42:53.300Z,99213.81
2018-08-08T03:45:26.695Z,99222.27
2018-08-08T03:47:56.901Z,99216.83
2018-08-08T03:50:27.647Z,99205.70
2018-08-08T03:52:57.897Z,99231.87
2018-08-08T03:55:27.213Z,99229.29
2018-08-08T03:57:57.174Z,99239.47
2018-08-08T04:00:26.673Z,99244.64
2018-08-08T04:02:56.637Z,99175.73
2018-08-08T04:05:27.636Z,99217.08
2018-08-08T04:07:57.648Z,99254.68
2018-08-08T04:10:27.873Z,99231.67
2018-08-08T04:12:57.787Z,99264.93
2018-08-08T04:15:27.780Z,99260.44
2018-08-08T04:17:58.139Z,99277.37
2018-08-08T04:20:28.094Z,99276.45
2018-08-08T04:22:57.455Z,99288.73
2018-08-08T04:25:28.907Z,99277.31
2018-08-08T04:27:59.954Z,99299.63
2018-08-08T04:30:31.288Z,99299.84
2018-08-08T04:33:01.831Z,99316.55
2018-08-08T04:35:31.920Z,99323.06
2018-08-08T04:38:01.997Z,99324.54
2018-08-08T04:40:32.462Z,99331.12
2018-08-08T04:43:01.813Z,99345.59
2018-08-08T04:45:34.479Z,99357.39
2018-08-08T04:48:04.801Z,99357.83
2018-08-08T04:50:35.549Z,99364.51
2018-08-08T04:53:06.029Z,99366.59
2018-08-08T04:55:37.002Z,99371.06
2018-08-08T04:58:07.407Z,99370.66
2018-08-08T05:00:37.497Z,99367.26
2018-08-08T05:03:08.486Z,99363.34
2018-08-08T05:05:38.521Z,99373.80
2018-08-08T05:08:09.258Z,99386.45
2018-08-08T05:10:40.457Z,99392.41
2018-08-08T05:13:12.785Z,99400.41
2018-08-08T05:15:44.903Z,99403.67
2018-08-08T05:18:14.250Z,99404.22
2018-08-08T05:20:45.102Z,99401.16
2018-08-08T05:23:17.796Z,99409.27
2018-08-08T05:25:48.273Z,99409.27
2018-08-08T05:28:18.115Z,99422.48
2018-08-08T05:30:47.831Z,99437.87
2018-08-08T05:33:19.347Z,99438.27
2018-08-08T05:35:50.403Z,99439.24
2018-08-08T05:38:23.062Z,99445.23
2018-08-08T05:40:56.008Z,99434.40
2018-08-08T05:43:28.274Z,99416.66
2018-08-08T05:46:00.545Z,99412.20
2018-08-08T05:48:32.798Z,99414.20
2018-08-08T05:51:04.817Z,99384.75
2018-08-08T05:53:36.748Z,99399.05
2018-08-08T05:56:07.880Z,99374.20
2018-08-08T05:58:40.534Z,99399.25
2018-08-08T06:01:12.406Z,99383.87
2018-08-08T06:03:44.837Z,99394.11
2018-08-08T06:06:16.669Z,99393.42
2018-08-08T06:08:48.028Z,99401.72
2018-08-08T06:11:20.388Z,99393.55
2018-08-08T06:13:52.849Z,99403.80
2018-08-08T06:16:25.395Z,99416.86
2018-08-08T06:18:57.278Z,99416.34
2018-08-08T06:21:30.712Z,99405.46
2018-08-08T06:24:01.498Z,99413.94
2018-08-08T06:26:34.129Z,99424.67
2018-08-08T06:29:06.145Z,99424.21
2018-08-08T06:31:40.032Z,99414.92
2018-08-08T06:34:21.167Z,99418.00
2018-08-08T06:36:52.714Z,99414.55
2018-08-08T06:39:24.643Z,99410.20
2018-08-08T06:41:57.522Z,99409.88
2018-08-08T06:44:29.505Z,99410.42
2018-08-08T06:47:03.890Z,99397.02
2018-08-08T06:49:39.207Z,99400.05
2018-08-08T06:52:11.699Z,99401.28
2018-08-08T06:54:46.576Z,99390.91
2018-08-08T06:57:19.554Z,99391.64
2018-08-08T06:59:49.844Z,99381.86
2018-08-08T07:02:20.844Z,99372.86
2018-08-08T07:04:53.210Z,99364.84
2018-08-08T07:07:27.722Z,99364.92
2018-08-08T07:10:02.415Z,99363.58
2018-08-08T07:12:34.449Z,99363.91
2018-08-08T07:15:06.833Z,99331.66
2018-08-08T07:17:39.031Z,99354.75
2018-08-08T07:20:12.540Z,99352.14
2018-08-08T07:22:44.124Z,99353.74
2018-08-08T07:25:18.215Z,99366.78
2018-08-08T07:27:51.483Z,99369.52
2018-08-08T07:30:26.401Z,99350.00
2018-08-08T07:32:57.548Z,99359.97
2018-08-08T07:35:29.439Z,99384.63
2018-08-08T07:38:03.108Z,99392.37
2018-08-08T07:40:33.378Z,99403.94
2018-08-08T07:43:05.496Z,99406.37
2018-08-08T07:45:38.066Z,99409.81
2018-08-08T07:48:08.326Z,99405.80
2018-08-08T07:50:38.982Z,99410.83
2018-08-08T07:53:10.143Z,99420.82
2018-08-08T07:55:42.396Z,99436.53
2018-08-08T07:58:16.203Z,99446.09
2018-08-08T08:00:48.136Z,99438.58
2018-08-08T08:03:21.376Z,99452.08
2018-08-08T08:05:54.069Z,99446.84
2018-08-08T08:08:24.763Z,99465.84
2018-08-08T08:10:57.124Z,99456.25
2018-08-08T08:13:28.540Z,99468.20
2018-08-08T08:16:00.686Z,99474.00
2018-08-08T08:18:33.440Z,99480.35
2018-08-08T08:21:06.430Z,99490.56
2018-08-08T08:23:41.808Z,99496.17
2018-08-08T08:26:20.412Z,99493.72
2018-08-08T08:28:55.214Z,99500.89
2018-08-08T08:31:27.007Z,99504.95
2018-08-08T08:34:02.201Z,99506.34
2018-08-08T08:36:40.707Z,99513.30
2018-08-08T08:39:15.540Z,99458.69
2018-08-08T08:41:54.832Z,99507.89
2018-08-08T08:44:26.623Z,99512.80
2018-08-08T08:46:57.547Z,99525.70
2018-08-08T08:49:33.333Z,99517.68
2018-08-08T08:52:06.332Z,99521.83
2018-08-08T08:54:37.305Z,99529.74
2018-08-08T08:57:10.408Z,99530.55
2018-08-08T08:59:41.800Z,99529.23
2018-08-08T09:02:14.320Z,99526.83
2018-08-08T09:04:45.572Z,99516.73
2018-08-08T09:07:17.394Z,99530.00
2018-08-08T09:09:51.372Z,99524.31
2018-08-08T09:12:23.324Z,99530.86
2018-08-08T09:15:00.154Z,99533.45
2018-08-08T09:17:33.588Z,99469.30
2018-08-08T09:20:05.748Z,99521.87
2018-08-08T09:22:38.756Z,99529.50
2018-08-08T09:25:11.918Z,99520.22
2018-08-08T09:27:42.904Z,99526.31
2018-08-08T09:30:16.408Z,99513.89
2018-08-08T09:32:48.682Z,99517.23
2018-08-08T09:35:19.053Z,99517.05
2018-08-08T09:37:56.680Z,99522.06
2018-08-08T09:40:28.466Z,99529.84
2018-08-08T09:43:00.705Z,99510.39
2018-08-08T09:45:33.100Z,99516.30
2018-08-08T09:48:05.455Z,99503.36
2018-08-08T09:50:37.283Z,99521.09
2018-08-08T09:53:08.482Z,99520.51
2018-08-08T09:55:42.418Z,99525.12
2018-08-08T09:58:15.729Z,99521.66
2018-08-08T10:00:52.807Z,99525.12
2018-08-08T10:03:30.535Z,99524.89
2018-08-08T10:06:02.348Z,99537.07
2018-08-08T10:08:35.754Z,99526.38
2018-08-08T10:11:07.644Z,99534.22
2018-08-08T10:13:39.447Z,99534.33
2018-08-08T10:16:11.565Z,99529.94
2018-08-08T10:18:43.283Z,99533.77
2018-08-08T10:21:14.316Z,99534.36
2018-08-08T10:23:46.981Z,99530.34
2018-08-08T10:26:19.738Z,99534.02
2018-08-08T10:28:54.569Z,99540.36
2018-08-08T10:31:27.837Z,99543.94
2018-08-08T10:34:02.542Z,99552.62
2018-08-08T10:36:34.462Z,99544.73
2018-08-08T10:39:12.706Z,99549.80
2018-08-08T10:41:45.305Z,99554.67
2018-08-08T10:44:17.765Z,99552.41
2018-08-08T10:46:51.259Z,99551.67
2018-08-08T10:49:23.119Z,99547.00
2018-08-08T10:51:54.265Z,99526.92
2018-08-08T10:54:26.127Z,99535.48
2018-08-08T10:59:28.819Z,99527.55
2018-08-08T11:01:59.945Z,99553.77
2018-08-08T11:04:38.329Z,99552.33
2018-08-08T11:15:40.349Z,99563.72
2018-08-08T11:18:12.937Z,99568.72
2018-08-08T11:20:48.411Z,99564.58
2018-08-08T11:23:21.938Z,99559.09
2018-08-08T11:25:54.565Z,99553.44
2018-08-08T11:28:29.911Z,99563.59
2018-08-08T11:31:03.645Z,99563.32
2018-08-08T11:33:41.734Z,99570.23
2018-08-08T11:38:52.212Z,99570.48
2018-08-08T11:41:24.212Z,99576.30
2018-08-08T11:43:55.749Z,99570.63
2018-08-08T11:46:26.070Z,99571.81
2018-08-08T11:48:59.014Z,99579.20
2018-08-08T11:51:35.267Z,99573.66
2018-08-08T11:54:09.474Z,99576.21
2018-08-08T11:56:41.765Z,99562.91
2018-08-08T11:59:14.200Z,99582.59
2018-08-08T12:01:47.883Z,99583.70
2018-08-08T12:04:19.690Z,99589.48
2018-08-08T12:06:51.146Z,99578.77
2018-08-08T12:09:24.648Z,99588.27
2018-08-08T12:11:55.005Z,99583.81
2018-08-08T12:14:27.280Z,99585.08
2018-08-08T12:16:58.823Z,99586.18
2018-08-08T12:19:30.617Z,99599.86
2018-08-08T12:22:01.395Z,99579.18
2018-08-08T12:24:37.104Z,99506.66
2018-08-08T12:27:09.348Z,99579.56
2018-08-08T12:29:41.011Z,99563.36
2018-08-08T12:32:16.330Z,99579.73
2018-08-08T12:34:51.263Z,99570.84
2018-08-08T12:37:27.756Z,99574.22
2018-08-08T12:39:58.770Z,99557.94
2018-08-08T12:42:30.000Z,99563.67
2018-08-08T12:45:15.711Z,99568.38
2018-08-08T12:47:47.782Z,99570.70
2018-08-08T12:50:23.993Z,99556.39
2018-08-08T12:52:57.077Z,99502.30
2018-08-08T12:55:29.415Z,99563.01
2018-08-08T13:03:47.987Z,99567.15
2018-08-08T13:06:21.121Z,99562.75
2018-08-08T13:08:53.411Z,99561.50
2018-08-08T13:11:26.611Z,99563.64
2018-08-08T13:16:45.757Z,99548.45
2018-08-08T13:19:22.973Z,99543.42
2018-08-08T13:21:54.533Z,99555.23
2018-08-08T13:24:25.675Z,99545.75
2018-08-08T13:27:00.454Z,99542.64
2018-08-08T13:29:32.031Z,99547.03
2018-08-08T13:32:05.047Z,99534.94
2018-08-08T13:34:35.311Z,99540.69
2018-08-08T13:39:48.191Z,99531.61
2018-08-08T13:42:23.745Z,99535.33
2018-08-08T13:44:55.676Z,99541.02
2018-08-08T13:47:27.494Z,99543.92
2018-08-08T13:50:00.279Z,99547.36
2018-08-08T13:52:32.054Z,99474.16
2018-08-08T13:55:05.563Z,99542.78
2018-08-08T13:57:36.697Z,99524.95
2018-08-08T14:00:07.701Z,99519.83
2018-08-08T14:02:38.804Z,99524.26
2018-08-08T14:05:09.951Z,99531.59
2018-08-08T14:07:41.019Z,99458.14
2018-08-08T14:10:14.271Z,99524.85
2018-08-08T14:12:46.751Z,99515.98
2018-08-08T14:15:16.893Z,99508.79
2018-08-08T14:17:47.829Z,99524.14
2018-08-08T14:20:20.556Z,99519.53
2018-08-08T14:22:54.041Z,99529.68
2018-08-08T14:25:33.666Z,99529.45
2018-08-08T14:28:04.032Z,99520.70
2018-08-08T14:30:34.632Z,99519.98
2018-08-08T14:33:08.603Z,99518.70
2018-08-08T14:35:39.568Z,99515.53
2018-08-08T14:38:09.186Z,99522.86
2018-08-08T14:40:40.591Z,99507.32
2018-08-08T14:43:10.627Z,99516.32
2018-08-08T14:45:40.725Z,99504.03
2018-08-08T14:48:11.375Z,99526.06
2018-08-08T14:50:43.126Z,99514.47
2018-08-08T14:53:13.896Z,99502.77
2018-08-08T14:55:43.635Z,99526.61
2018-08-08T14:58:16.907Z,99491.43
2018-08-08T15:00:48.804Z,99520.39
2018-08-08T15:03:18.794Z,99448.88
2018-08-08T15:05:52.129Z,99523.35
2018-08-08T15:08:22.855Z,99534.70
2018-08-08T15:10:56.495Z,99532.41
2018-08-08T15:13:27.905Z,99523.99
2018-08-08T15:15:57.867Z,99525.94
2018-08-08T15:18:28.658Z,99526.84
2018-08-08T15:21:01.443Z,99530.59
2018-08-08T15:23:34.159Z,99523.25
2018-08-08T15:26:06.366Z,99521.96
2018-08-08T15:28:37.364Z,99527.92
2018-08-08T15:31:10.325Z,99521.94
2018-08-08T15:33:41.552Z,99525.52
2018-08-08T15:36:12.823Z,99517.11
2018-08-08T15:38:43.452Z,99521.33
2018-08-08T15:41:14.524Z,99521.30
2018-08-08T15:43:44.644Z,99526.48
2018-08-08T15:46:15.046Z,99525.90
2018-08-08T15:48:44.402Z,99518.71
2018-08-08T15:51:19.283Z,99519.08
2018-08-08T15:53:49.655Z,99520.50
2018-08-08T15:56:20.434Z,99512.73
2018-08-08T15:58:51.785Z,99511.57
2018-08-08T16:01:22.774Z,99509.88
2018-08-08T16:03:53.351Z,99506.94
2018-08-08T16:06:27.745Z,99512.80
2018-08-08T16:09:01.569Z,99507.63
2018-08-08T16:11:34.498Z,99510.06
2018-08-08T16:14:03.883Z,99505.91
2018-08-08T16:16:37.596Z,99512.87
2018-08-08T16:19:09.076Z,99501.64
2018-08-08T16:21:40.379Z,99503.35
2018-08-08T16:24:10.562Z,99508.33
2018-08-08T16:26:43.013Z,99502.42
2018-08-08T16:29:13.867Z,99506.16
2018-08-08T16:31:44.241Z,99506.78
2018-08-08T16:34:13.645Z,99511.97
2018-08-08T16:36:44.275Z,99505.66
2018-08-08T16:39:16.618Z,99508.98
2018-08-08T16:41:48.178Z,99505.00
2018-08-08T16:44:20.259Z,99497.81
2018-08-08T16:46:51.591Z,99507.66
2018-08-08T16:49:22.650Z,99498.29
2018-08-08T16:51:53.158Z,99498.98
2018-08-08T16:54:23.214Z,99508.50
2018-08-08T16:56:54.123Z,99509.44
2018-08-08T16:59:23.782Z,99512.25
2018-08-08T17:01:54.571Z,99510.00
2018-08-08T17:04:26.675Z,99513.84
2018-08-08T17:06:58.930Z,99512.52
2018-08-08T17:09:30.627Z,99503.84
2018-08-08T17:12:01.153Z,99502.42
2018-08-08T17:14:31.451Z,99502.99
2018-08-08T17:17:01.893Z,99509.25
2018-08-08T17:19:32.061Z,99509.79
2018-08-08T17:22:02.655Z,99508.92
2018-08-08T17:24:32.051Z,99504.51
2018-08-08T17:27:03.566Z,99518.84
2018-08-08T17:29:33.646Z,99514.33
2018-08-08T17:32:06.954Z,99506.84
2018-08-08T17:34:39.544Z,99511.20
2018-08-08T17:37:12.729Z,99517.55
2018-08-08T17:39:45.463Z,99520.94
2018-08-08T17:42:20.010Z,99522.67
2018-08-08T17:44:52.382Z,99522.72
2018-08-08T17:47:25.685Z,99517.77
2018-08-08T17:49:57.693Z,99515.58
2018-08-08T17:52:27.431Z,99517.81
2018-08-08T17:54:57.304Z,99520.25
2018-08-08T17:57:26.635Z,99530.47
2018-08-08T17:59:57.112Z,99532.33
2018-08-08T18:02:29.071Z,99539.91
2018-08-08T18:04:59.696Z,99538.93
2018-08-08T18:07:31.380Z,99543.33
2018-08-08T18:10:02.500Z,99554.70
2018-08-08T18:12:34.610Z,99544.48
2018-08-08T18:15:08.992Z,99549.91
2018-08-08T18:17:40.030Z,99552.01
2018-08-08T18:20:11.606Z,99544.94
2018-08-08T18:22:41.606Z,99536.25
2018-08-08T18:25:12.672Z,99559.95
2018-08-08T18:27:45.732Z,99562.67
2018-08-08T18:33:02.015Z,99565.33
2018-08-08T18:35:36.411Z,99569.45
2018-08-08T18:38:13.783Z,99566.00
2018-08-08T18:40:56.048Z,99570.00
2018-08-08T18:43:30.393Z,99528.83
2018-08-08T18:46:03.229Z,99567.37
2018-08-08T18:48:37.855Z,99566.50
2018-08-08T18:51:09.822Z,99509.77
2018-08-08T18:53:39.930Z,99579.42
2018-08-08T18:56:10.726Z,99588.84
2018-08-08T18:58:43.514Z,99593.58
2018-08-08T19:01:13.175Z,99595.52
2018-08-08T19:04:51.934Z,99602.77
2018-08-08T19:07:26.650Z,99610.04
2018-08-08T19:09:59.190Z,99610.22
2018-08-08T19:12:30.476Z,99612.56
2018-08-08T19:15:05.516Z,99613.36
2018-08-08T19:17:36.268Z,99612.41
2018-08-08T19:20:08.283Z,99624.02
2018-08-08T19:22:39.562Z,99623.32
2018-08-08T19:25:09.843Z,99631.33
2018-08-08T19:27:39.204Z,99629.66
2018-08-08T19:30:13.312Z,99636.78
2018-08-08T19:32:45.088Z,99640.63
2018-08-08T19:35:16.659Z,99648.51
2018-08-08T19:37:48.850Z,99646.55
2018-08-08T19:40:20.302Z,99632.95
2018-08-08T19:42:50.408Z,99645.63
2018-08-08T19:45:21.528Z,99653.77
2018-08-08T19:47:53.222Z,99652.88
2018-08-08T19:50:25.987Z,99648.09
2018-08-08T19:52:57.667Z,99663.23
2018-08-08T19:55:28.411Z,99655.59
2018-08-08T19:57:58.628Z,99668.83
2018-08-08T20:00:30.996Z,99667.08
2018-08-08T20:03:01.792Z,99657.90
2018-08-08T20:05:33.366Z,99642.89
2018-08-08T20:08:03.327Z,99659.79
2018-08-08T20:13:14.059Z,99666.02
2018-08-08T20:15:46.356Z,99662.89
2018-08-08T20:18:19.920Z,99671.19
2018-08-08T20:20:52.895Z,99668.09
2018-08-08T20:23:22.671Z,99674.69
2018-08-08T20:25:54.436Z,99671.05
2018-08-08T20:28:25.843Z,99663.61
2018-08-08T20:30:59.710Z,99667.13
2018-08-08T20:33:29.793Z,99668.64
2018-08-08T20:36:01.288Z,99674.63
2018-08-08T20:38:32.328Z,99675.53
2018-08-08T20:41:02.499Z,99675.48
2018-08-08T20:43:37.679Z,99675.06
2018-08-08T20:46:07.834Z,99670.84
2018-08-08T20:48:37.187Z,99653.00
2018-08-08T20:51:08.262Z,99668.68
2018-08-08T20:53:38.599Z,99671.53
2018-08-08T20:56:09.109Z,99675.75
2018-08-08T20:58:39.714Z,99678.81
2018-08-08T21:01:09.401Z,99673.78
2018-08-08T21:03:41.698Z,99652.20
2018-08-08T21:06:15.314Z,99668.55
2018-08-08T21:08:44.791Z,99674.28
2018-08-08T21:11:14.139Z,99677.67
2018-08-08T21:13:44.777Z,99675.20
2018-08-08T21:16:19.855Z,99681.33
2018-08-08T21:18:51.498Z,99671.21
2018-08-08T21:21:23.597Z,99684.54
2018-08-08T21:23:54.507Z,99689.36
2018-08-08T21:26:24.786Z,99694.90
2018-08-08T21:28:54.459Z,99697.79
2018-08-08T21:31:24.474Z,99692.29
2018-08-08T21:33:57.961Z,99688.21
2018-08-08T21:36:27.966Z,99694.53
2018-08-08T21:38:57.887Z,99689.08
2018-08-08T21:41:28.214Z,99689.91
2018-08-08T21:43:58.342Z,99688.11
2018-08-08T21:46:30.014Z,99686.51
2018-08-08T21:49:00.670Z,99686.28
2018-08-08T21:51:30.647Z,99688.75
2018-08-08T21:54:11.434Z,99692.09
2018-08-08T21:56:53.589Z,99699.00
2018-08-08T21:59:35.196Z,99692.41
2018-08-08T22:02:19.725Z,99690.58
2018-08-08T22:05:01.446Z,99695.05
2018-08-08T22:07:42.423Z,99692.35
2018-08-08T22:10:24.602Z,99698.81
2018-08-08T22:13:05.436Z,99700.23
2018-08-08T22:16:46.451Z,99702.91
2018-08-08T22:19:28.752Z,99703.95
2018-08-08T22:21:59.275Z,99706.29
2018-08-08T22:24:28.818Z,99708.31
2018-08-08T22:26:58.730Z,99711.49
2018-08-08T22:29:29.364Z,99716.89
2018-08-08T22:31:58.823Z,99717.77
2018-08-08T22:34:29.443Z,99714.58
2018-08-08T22:36:59.519Z,99723.17
2018-08-08T22:39:31.046Z,99722.62
2018-08-08T22:42:01.139Z,99723.75
2018-08-08T22:44:30.470Z,99716.09
2018-08-08T22:47:00.192Z,99727.91
2018-08-08T22:49:30.255Z,99727.89
2018-08-08T22:52:04.604Z,99725.75
2018-08-08T22:54:35.078Z,99715.38
2018-08-08T22:57:05.728Z,99723.08
2018-08-08T22:59:38.959Z,99711.18
2018-08-08T23:02:08.380Z,99669.62
2018-08-08T23:04:39.807Z,99698.31
2018-08-08T23:07:11.293Z,99708.02
2018-08-08T23:09:42.276Z,99710.22
2018-08-08T23:12:13.590Z,99707.20
2018-08-08T23:14:44.752Z,99697.81
2018-08-08T23:17:15.249Z,99699.62
2018-08-08T23:19:44.976Z,99697.27
2018-08-08T23:22:25.955Z,99700.91
2018-08-08T23:24:55.645Z,99698.57
2018-08-08T23:27:25.698Z,99699.72
2018-08-08T23:29:56.390Z,99690.73
2018-08-08T23:32:26.728Z,99697.64
2018-08-08T23:34:57.914Z,99686.14
2018-08-08T23:37:27.274Z,99694.03
2018-08-08T23:39:58.326Z,99704.42
2018-08-08T23:42:31.134Z,99687.63
2018-08-08T23:45:00.452Z,99683.73
2018-08-08T23:47:32.572Z,99678.30
2018-08-08T23:50:02.579Z,99685.38
2018-08-08T23:52:34.079Z,99672.34
2018-08-08T23:55:04.491Z,99667.19
2018-08-08T23:57:34.486Z,99670.23
